createdAt,value
2022-07-29T00:01:45.022Z,4.18
2022-07-29T00:04:12.061Z,3.45
2022-07-29T00:06:38.812Z,4.40
2022-07-29T00:09:05.548Z,5.03
2022-07-29T00:11:32.118Z,2.50
2022-07-29T00:13:58.667Z,3.20
2022-07-29T00:16:25.482Z,2.45
2022-07-29T00:18:52.052Z,10.02
2022-07-29T00:21:18.646Z,3.60
2022-07-29T00:23:45.208Z,4.70
2022-07-29T00:26:11.777Z,3.90
2022-07-29T00:28:38.443Z,4.53
2022-07-29T00:31:05.339Z,3.58
2022-07-29T00:33:31.951Z,2.30
2022-07-29T00:35:58.541Z,2.42
2022-07-29T00:38:25.260Z,4.68
2022-07-29T00:40:51.890Z,2.38
2022-07-29T00:43:19.007Z,3.13
2022-07-29T00:45:45.835Z,4.00
2022-07-29T00:48:12.382Z,3.40
2022-07-29T00:50:39.210Z,2.45
2022-07-29T00:53:07.729Z,3.53
2022-07-29T00:55:34.349Z,3.42
2022-07-29T00:58:01.358Z,3.17
2022-07-29T01:00:28.913Z,3.72
2022-07-29T01:02:55.638Z,2.88
2022-07-29T01:05:23.079Z,3.85
2022-07-29T01:07:52.270Z,3.55
2022-07-29T01:10:19.617Z,4.05
2022-07-29T01:12:47.470Z,2.42
2022-07-29T01:15:14.075Z,5.93
2022-07-29T01:17:52.717Z,5.47
2022-07-29T01:20:20.367Z,2.40
2022-07-29T01:23:09.544Z,5.72
2022-07-29T01:25:56.155Z,3.22
2022-07-29T01:28:38.878Z,7.32
2022-07-29T01:31:06.303Z,5.03
2022-07-29T01:33:50.523Z,4.47
2022-07-29T01:36:36.182Z,3.65
2022-07-29T01:39:15.403Z,2.05
2022-07-29T01:41:48.972Z,3.75
2022-07-29T01:44:27.795Z,5.60
2022-07-29T01:46:55.474Z,3.45
2022-07-29T01:49:25.181Z,3.17
2022-07-29T01:51:54.516Z,3.17
2022-07-29T01:54:26.008Z,3.67
2022-07-29T01:56:54.389Z,4.00
2022-07-29T01:59:21.557Z,5.10
2022-07-29T02:01:49.521Z,6.45
2022-07-29T02:04:29.364Z,5.80
2022-07-29T02:06:59.678Z,3.90
2022-07-29T02:09:26.741Z,6.85
2022-07-29T02:11:54.374Z,6.20
2022-07-29T02:14:22.107Z,3.70
2022-07-29T02:16:50.738Z,3.67
2022-07-29T02:19:18.944Z,5.63
2022-07-29T02:21:46.503Z,4.22
2022-07-29T02:24:13.997Z,7.78
2022-07-29T02:26:42.660Z,3.65
2022-07-29T02:29:09.796Z,3.08
2022-07-29T02:31:37.491Z,7.18
2022-07-29T02:34:05.870Z,4.20
2022-07-29T02:36:33.019Z,5.88
2022-07-29T02:39:01.627Z,3.00
2022-07-29T02:41:38.219Z,3.42
2022-07-29T02:44:07.557Z,3.67
2022-07-29T02:46:35.634Z,5.05
2022-07-29T02:49:09.982Z,2.92
2022-07-29T02:51:47.181Z,2.78
2022-07-29T02:54:21.402Z,7.78
2022-07-29T02:57:01.137Z,2.75
2022-07-29T02:59:28.941Z,6.82
2022-07-29T03:01:56.312Z,5.05
2022-07-29T03:04:23.717Z,17.85
2022-07-29T03:06:51.506Z,4.20
2022-07-29T03:09:18.235Z,4.95
2022-07-29T03:11:50.547Z,4.13
2022-07-29T03:14:18.562Z,5.20
2022-07-29T03:16:45.887Z,10.65
2022-07-29T03:19:12.598Z,4.45
2022-07-29T03:21:39.606Z,2.90
2022-07-29T03:24:10.240Z,4.05
2022-07-29T03:26:37.212Z,5.45
2022-07-29T03:29:05.114Z,6.00
2022-07-29T03:31:33.545Z,6.40
2022-07-29T03:34:00.256Z,4.72
2022-07-29T03:36:27.360Z,6.68
2022-07-29T03:38:54.168Z,4.75
2022-07-29T03:41:22.527Z,4.20
2022-07-29T03:43:50.659Z,4.25
2022-07-29T03:46:18.402Z,8.98
2022-07-29T03:48:47.955Z,6.05
2022-07-29T03:51:14.538Z,5.90
2022-07-29T03:53:41.338Z,6.50
2022-07-29T03:56:09.681Z,6.72
2022-07-29T03:58:36.418Z,7.10
2022-07-29T04:01:03.257Z,6.10
2022-07-29T04:03:30.587Z,4.95
2022-07-29T04:06:01.350Z,7.93
2022-07-29T04:08:27.967Z,9.15
2022-07-29T04:10:55.559Z,7.55
2022-07-29T04:13:22.066Z,8.27
2022-07-29T04:15:55.988Z,9.02
2022-07-29T04:18:22.558Z,7.15
2022-07-29T04:20:49.075Z,6.88
2022-07-29T04:23:15.678Z,5.78
2022-07-29T04:25:42.754Z,7.20
2022-07-29T04:28:10.027Z,10.88
2022-07-29T04:30:37.055Z,10.65
2022-07-29T04:33:04.718Z,10.70
2022-07-29T04:35:38.101Z,9.73
2022-07-29T04:38:06.011Z,7.47
2022-07-29T04:40:34.018Z,11.35
2022-07-29T04:43:01.801Z,14.77
2022-07-29T04:45:32.257Z,10.65
2022-07-29T04:47:58.768Z,8.63
2022-07-29T04:50:25.323Z,12.10
2022-07-29T04:52:51.828Z,15.63
2022-07-29T04:55:18.353Z,14.70
2022-07-29T04:57:44.895Z,13.57
2022-07-29T05:00:11.709Z,8.77
2022-07-29T05:02:39.171Z,13.07
2022-07-29T05:05:05.933Z,13.30
2022-07-29T05:07:32.561Z,10.93
2022-07-29T05:09:59.118Z,14.35
2022-07-29T05:12:25.945Z,16.73
2022-07-29T05:14:52.802Z,16.75
2022-07-29T05:17:19.523Z,13.77
2022-07-29T05:19:47.826Z,9.35
2022-07-29T05:22:14.650Z,15.82
2022-07-29T05:24:41.752Z,8.95
2022-07-29T05:27:08.267Z,11.90
2022-07-29T05:29:43.664Z,12.52
2022-07-29T05:32:12.823Z,7.90
2022-07-29T05:34:50.353Z,7.30
2022-07-29T05:37:18.665Z,13.57
2022-07-29T05:39:47.500Z,10.85
2022-07-29T05:42:15.869Z,7.15
2022-07-29T05:44:42.478Z,10.63
2022-07-29T05:47:09.001Z,14.63
2022-07-29T05:49:37.733Z,10.70
2022-07-29T05:52:04.597Z,13.20
2022-07-29T05:54:32.750Z,11.00
2022-07-29T05:56:59.462Z,6.70
2022-07-29T05:59:30.175Z,7.00
2022-07-29T06:01:58.578Z,8.48
2022-07-29T06:04:25.273Z,10.15
2022-07-29T06:06:51.981Z,5.43
2022-07-29T06:09:18.533Z,5.90
2022-07-29T06:11:45.730Z,9.98
2022-07-29T06:14:12.375Z,8.77
2022-07-29T06:16:40.202Z,8.13
2022-07-29T06:19:06.821Z,10.77
2022-07-29T06:21:34.548Z,15.15
2022-07-29T06:24:05.337Z,7.65
2022-07-29T06:26:35.228Z,8.45
2022-07-29T06:29:05.913Z,6.43
2022-07-29T06:31:32.574Z,9.60
2022-07-29T06:33:59.330Z,10.25
2022-07-29T06:36:26.248Z,7.43
2022-07-29T06:38:52.773Z,7.65
2022-07-29T06:41:20.326Z,12.07
2022-07-29T06:43:51.854Z,5.22
2022-07-29T06:46:21.469Z,4.97
2022-07-29T06:48:49.929Z,6.63
2022-07-29T06:51:17.312Z,8.63
2022-07-29T06:53:59.737Z,6.50
2022-07-29T06:56:38.393Z,5.43
2022-07-29T06:59:07.473Z,8.43
2022-07-29T07:01:34.115Z,6.45
2022-07-29T07:04:00.724Z,5.70
2022-07-29T07:06:27.490Z,6.90
2022-07-29T07:08:54.756Z,9.02
2022-07-29T07:11:21.554Z,7.28
2022-07-29T07:13:48.146Z,9.32
2022-07-29T07:16:15.209Z,5.90
2022-07-29T07:18:43.350Z,8.38
2022-07-29T07:21:10.157Z,7.07
2022-07-29T07:23:36.626Z,7.15
2022-07-29T07:26:05.132Z,9.98
2022-07-29T07:28:31.739Z,7.13
2022-07-29T07:30:58.691Z,8.13
2022-07-29T07:33:25.701Z,10.57
2022-07-29T07:35:52.235Z,9.27
2022-07-29T07:38:18.741Z,9.48
2022-07-29T07:40:47.349Z,9.57
2022-07-29T07:43:14.107Z,8.63
2022-07-29T07:45:41.154Z,8.27
2022-07-29T07:48:07.908Z,9.85
2022-07-29T07:50:34.817Z,10.10
2022-07-29T07:53:03.220Z,9.93
2022-07-29T07:55:42.450Z,8.07
2022-07-29T07:58:16.319Z,11.32
2022-07-29T08:00:42.930Z,17.80
2022-07-29T08:03:16.812Z,25.13
2022-07-29T08:05:44.244Z,27.55
2022-07-29T08:08:10.820Z,19.77
2022-07-29T08:11:15.563Z,16.00
2022-07-29T08:13:42.184Z,13.25
2022-07-29T08:16:16.179Z,15.52
2022-07-29T08:18:43.716Z,14.50
2022-07-29T08:21:10.359Z,12.63
2022-07-29T08:23:46.131Z,13.45
2022-07-29T08:26:15.178Z,15.52
2022-07-29T08:28:45.711Z,11.05
2022-07-29T08:31:12.918Z,14.18
2022-07-29T08:33:42.046Z,15.90
2022-07-29T08:36:08.748Z,11.98
2022-07-29T08:38:38.055Z,12.77
2022-07-29T08:41:04.597Z,16.92
2022-07-29T08:43:31.305Z,20.70
2022-07-29T08:45:57.868Z,17.75
2022-07-29T08:48:24.855Z,17.83
2022-07-29T08:50:55.145Z,14.55
2022-07-29T08:53:22.097Z,23.02
2022-07-29T08:55:50.920Z,12.70
2022-07-29T08:58:17.895Z,13.40
2022-07-29T09:00:55.279Z,13.02
2022-07-29T09:03:24.039Z,11.38
2022-07-29T09:05:51.132Z,19.17
2022-07-29T09:08:18.063Z,13.35
2022-07-29T09:10:45.015Z,11.07
2022-07-29T09:13:11.558Z,10.13
2022-07-29T09:15:41.147Z,10.38
2022-07-29T09:18:07.867Z,10.30
2022-07-29T09:21:11.064Z,14.57
2022-07-29T09:23:37.724Z,11.18
2022-07-29T09:26:06.198Z,11.73
2022-07-29T09:28:32.767Z,10.10
2022-07-29T09:30:59.476Z,9.23
2022-07-29T09:33:32.681Z,13.73
2022-07-29T09:36:01.091Z,10.00
2022-07-29T09:38:28.489Z,8.45
2022-07-29T09:40:59.984Z,7.32
2022-07-29T09:43:35.230Z,8.32
2022-07-29T09:46:14.718Z,10.80
2022-07-29T09:48:41.312Z,8.98
2022-07-29T09:51:20.700Z,13.45
2022-07-29T09:53:49.056Z,10.27
2022-07-29T09:56:16.192Z,12.80
2022-07-29T09:58:42.716Z,9.07
2022-07-29T10:01:09.263Z,12.05
2022-07-29T10:03:52.953Z,10.18
2022-07-29T10:06:19.528Z,11.23
2022-07-29T10:08:46.016Z,8.68
2022-07-29T10:11:13.775Z,10.25
2022-07-29T10:13:41.221Z,9.63
2022-07-29T10:16:07.874Z,8.07
2022-07-29T10:18:34.754Z,8.45
2022-07-29T10:21:02.172Z,10.85
2022-07-29T10:23:29.545Z,11.02
2022-07-29T10:26:13.463Z,7.43
2022-07-29T10:28:40.011Z,7.22
2022-07-29T10:31:07.417Z,6.93
2022-07-29T10:33:38.354Z,8.80
2022-07-29T10:36:24.547Z,6.15
2022-07-29T10:39:00.286Z,7.68
2022-07-29T10:41:32.322Z,7.45
2022-07-29T10:44:11.363Z,9.35
2022-07-29T10:46:44.142Z,8.35
2022-07-29T10:49:15.239Z,7.63
2022-07-29T10:51:51.311Z,6.07
2022-07-29T10:54:18.778Z,8.23
2022-07-29T10:56:45.571Z,9.50
2022-07-29T10:59:20.496Z,7.28
2022-07-29T11:01:53.575Z,9.10
2022-07-29T11:04:39.677Z,8.18
2022-07-29T11:07:06.374Z,8.93
2022-07-29T11:09:37.431Z,12.07
2022-07-29T11:12:25.404Z,7.68
2022-07-29T11:14:53.373Z,6.75
2022-07-29T11:17:20.024Z,8.00
2022-07-29T11:19:51.975Z,9.93
2022-07-29T11:22:34.005Z,5.95
2022-07-29T11:25:14.150Z,9.40
2022-07-29T11:27:43.990Z,10.23
2022-07-29T11:33:00.128Z,7.60
2022-07-29T11:35:37.998Z,9.13
2022-07-29T11:38:27.843Z,5.78
2022-07-29T11:41:13.816Z,3.97
2022-07-29T11:43:54.878Z,11.27
2022-07-29T11:46:42.759Z,6.53
2022-07-29T11:49:11.310Z,7.78
2022-07-29T11:51:48.248Z,7.57
2022-07-29T11:54:19.086Z,7.05
2022-07-29T11:56:54.924Z,5.20
2022-07-29T11:59:22.208Z,5.53
2022-07-29T12:02:18.375Z,8.20
2022-07-29T12:04:53.323Z,4.35
2022-07-29T12:07:01.470Z,6.05
2022-07-29T12:07:34.656Z,4.40
2022-07-29T12:10:03.041Z,4.90
2022-07-29T12:12:33.602Z,4.80
2022-07-29T12:15:22.394Z,7.65
2022-07-29T12:17:49.625Z,6.53
2022-07-29T12:20:27.150Z,6.15
2022-07-29T12:22:58.119Z,5.32
2022-07-29T12:25:33.721Z,5.32
2022-07-29T12:28:05.950Z,10.20
2022-07-29T12:30:39.976Z,9.18
2022-07-29T12:33:14.445Z,9.82
2022-07-29T12:35:43.750Z,6.65
2022-07-29T12:38:12.802Z,8.93
2022-07-29T12:40:39.520Z,9.45
2022-07-29T12:43:13.473Z,7.57
2022-07-29T12:45:41.498Z,8.05
2022-07-29T12:48:09.758Z,9.90
2022-07-29T12:50:57.077Z,8.65
2022-07-29T12:53:23.815Z,10.30
2022-07-29T12:55:55.401Z,6.80
2022-07-29T12:58:40.293Z,10.55
2022-07-29T13:01:17.597Z,8.02
2022-07-29T13:03:57.470Z,9.18
2022-07-29T13:06:34.021Z,10.90
2022-07-29T13:09:23.107Z,7.85
2022-07-29T13:11:51.614Z,9.93
2022-07-29T13:14:38.025Z,8.68
2022-07-29T13:17:06.291Z,8.20
2022-07-29T13:19:40.250Z,8.73
2022-07-29T13:22:07.881Z,6.28
2022-07-29T13:24:34.790Z,8.57
2022-07-29T13:27:05.747Z,7.40
2022-07-29T13:29:32.556Z,9.32
2022-07-29T13:31:59.487Z,9.32
2022-07-29T13:34:27.283Z,6.18
2022-07-29T13:36:54.460Z,7.60
2022-07-29T13:39:22.447Z,6.30
2022-07-29T13:41:49.244Z,8.40
2022-07-29T13:44:16.007Z,7.97
2022-07-29T13:46:44.265Z,8.60
2022-07-29T13:49:13.301Z,6.90
2022-07-29T13:51:42.445Z,7.90
2022-07-29T13:54:09.605Z,6.35
2022-07-29T13:56:37.275Z,6.18
2022-07-29T13:59:06.208Z,5.13
2022-07-29T14:01:35.215Z,7.28
2022-07-29T14:04:02.096Z,5.40
2022-07-29T14:06:28.740Z,5.45
2022-07-29T14:08:57.931Z,6.68
2022-07-29T14:11:25.267Z,12.27
2022-07-29T14:13:52.132Z,10.88
2022-07-29T14:16:20.129Z,7.70
2022-07-29T14:18:49.095Z,9.05
2022-07-29T14:21:16.282Z,5.50
2022-07-29T14:23:43.765Z,6.70
2022-07-29T14:26:14.009Z,11.05
2022-07-29T14:28:44.880Z,10.80
2022-07-29T14:31:12.620Z,5.80
2022-07-29T14:33:41.633Z,4.85
2022-07-29T14:36:12.241Z,6.68
2022-07-29T14:38:40.025Z,6.82
2022-07-29T14:41:07.023Z,7.97
2022-07-29T14:43:34.218Z,6.80
2022-07-29T14:46:05.179Z,9.10
2022-07-29T14:48:34.591Z,9.18
2022-07-29T14:51:04.880Z,10.32
2022-07-29T14:53:34.342Z,7.78
2022-07-29T14:56:15.271Z,8.07
2022-07-29T14:58:49.161Z,9.63
2022-07-29T15:01:18.814Z,10.30
2022-07-29T15:03:45.347Z,5.55
2022-07-29T15:06:12.287Z,5.40
2022-07-29T15:08:39.009Z,6.80
2022-07-29T15:11:05.551Z,8.73
2022-07-29T15:13:32.018Z,8.00
2022-07-29T15:16:01.316Z,7.40
2022-07-29T15:18:27.816Z,6.13
2022-07-29T15:20:54.420Z,7.88
2022-07-29T15:23:32.589Z,5.80
2022-07-29T15:25:59.752Z,8.93
2022-07-29T15:28:26.310Z,6.38
2022-07-29T15:30:53.852Z,7.80
2022-07-29T15:33:21.256Z,5.25
2022-07-29T15:35:47.778Z,8.00
2022-07-29T15:38:14.372Z,8.02
2022-07-29T15:40:42.170Z,7.07
2022-07-29T15:43:08.726Z,5.90
2022-07-29T15:45:40.748Z,7.85
2022-07-29T15:48:08.345Z,5.85
2022-07-29T15:50:37.367Z,7.65
2022-07-29T15:53:04.305Z,4.72
2022-07-29T15:55:30.855Z,6.18
2022-07-29T15:58:00.747Z,6.75
2022-07-29T16:00:28.037Z,6.15
2022-07-29T16:02:54.975Z,8.07
2022-07-29T16:05:23.738Z,6.55
2022-07-29T16:07:50.299Z,6.30
2022-07-29T16:10:16.872Z,5.68
2022-07-29T16:12:43.447Z,5.13
2022-07-29T16:15:19.828Z,6.40
2022-07-29T16:17:48.170Z,7.35
2022-07-29T16:20:14.835Z,8.82
2022-07-29T16:22:41.754Z,6.60
2022-07-29T16:25:09.269Z,5.38
2022-07-29T16:27:38.304Z,7.22
2022-07-29T16:30:08.310Z,9.90
2022-07-29T16:32:36.237Z,10.65
2022-07-29T16:35:05.072Z,5.47
2022-07-29T16:37:37.327Z,4.22
2022-07-29T16:40:11.608Z,5.78
2022-07-29T16:42:47.169Z,5.22
2022-07-29T16:45:14.655Z,5.82
2022-07-29T16:47:41.594Z,4.55
2022-07-29T16:50:11.428Z,7.15
2022-07-29T16:52:38.416Z,6.78
2022-07-29T16:55:05.820Z,4.20
2022-07-29T16:57:33.770Z,5.20
2022-07-29T17:00:02.218Z,4.78
2022-07-29T17:02:29.874Z,5.07
2022-07-29T17:05:02.728Z,4.78
2022-07-29T17:07:30.947Z,3.75
2022-07-29T17:10:03.305Z,8.13
2022-07-29T17:12:33.669Z,5.78
2022-07-29T17:15:03.040Z,5.18
2022-07-29T17:17:39.231Z,5.15
2022-07-29T17:20:21.080Z,4.93
2022-07-29T17:22:48.055Z,4.85
2022-07-29T17:25:20.988Z,4.63
2022-07-29T17:27:49.525Z,6.30
2022-07-29T17:30:18.795Z,4.32
2022-07-29T17:32:46.012Z,6.05
2022-07-29T17:35:31.387Z,5.35
2022-07-29T17:37:58.009Z,3.63
2022-07-29T17:40:24.740Z,6.05
2022-07-29T17:42:53.551Z,5.57
2022-07-29T17:45:20.208Z,4.68
2022-07-29T17:47:49.675Z,6.43
2022-07-29T17:50:16.466Z,8.05
2022-07-29T17:52:43.194Z,6.07
2022-07-29T17:55:13.638Z,5.88
2022-07-29T17:57:42.897Z,7.97
2022-07-29T18:00:12.141Z,4.20
2022-07-29T18:02:40.797Z,5.57
2022-07-29T18:05:07.784Z,5.88
2022-07-29T18:07:34.361Z,6.53
2022-07-29T18:10:01.035Z,4.18
2022-07-29T18:12:30.899Z,5.95
2022-07-29T18:14:57.635Z,3.80
2022-07-29T18:17:48.446Z,4.18
2022-07-29T18:20:12.577Z,3.13
2022-07-29T18:22:39.185Z,3.72
2022-07-29T18:25:05.840Z,3.92
2022-07-29T18:27:34.033Z,4.75
2022-07-29T18:30:04.855Z,3.03
2022-07-29T18:32:32.024Z,5.10
2022-07-29T18:35:05.225Z,3.38
2022-07-29T18:38:01.080Z,5.80
2022-07-29T18:40:21.000Z,4.93
2022-07-29T18:42:48.869Z,3.30
2022-07-29T18:45:22.885Z,5.82
2022-07-29T18:47:56.677Z,4.53
2022-07-29T18:50:29.896Z,4.43
2022-07-29T18:53:03.476Z,4.80
2022-07-29T18:55:33.112Z,4.78
2022-07-29T18:58:03.962Z,3.60
2022-07-29T19:00:30.713Z,4.72
2022-07-29T19:02:57.519Z,4.32
2022-07-29T19:05:27.842Z,4.63
2022-07-29T19:07:56.128Z,4.22
2022-07-29T19:10:22.784Z,5.40
2022-07-29T19:12:49.851Z,5.07
2022-07-29T19:15:20.251Z,4.05
2022-07-29T19:17:49.636Z,5.75
2022-07-29T19:20:17.293Z,5.38
2022-07-29T19:22:44.601Z,3.78
2022-07-29T19:25:11.961Z,7.95
2022-07-29T19:27:38.483Z,9.38
2022-07-29T19:30:09.952Z,16.52
2022-07-29T19:32:37.679Z,15.40
2022-07-29T19:35:23.661Z,13.25
2022-07-29T19:37:51.464Z,12.63
2022-07-29T19:40:18.299Z,8.95
2022-07-29T19:42:45.028Z,11.55
2022-07-29T19:45:13.864Z,9.77
2022-07-29T19:47:41.366Z,11.82
2022-07-29T19:50:08.544Z,17.60
2022-07-29T19:52:36.410Z,30.25
2022-07-29T19:55:07.532Z,15.43
2022-07-29T19:57:40.550Z,14.30
2022-07-29T20:00:07.914Z,18.27
2022-07-29T20:02:38.181Z,20.25
2022-07-29T20:05:06.657Z,17.98
2022-07-29T20:07:33.194Z,11.45
2022-07-29T20:09:59.740Z,26.90
2022-07-29T20:12:26.326Z,22.60
2022-07-29T20:14:54.254Z,15.30
2022-07-29T20:17:22.320Z,11.45
2022-07-29T20:19:49.817Z,8.93
2022-07-29T20:22:21.202Z,8.30
2022-07-29T20:24:48.192Z,6.35
2022-07-29T20:27:14.761Z,5.63
2022-07-29T20:29:41.380Z,6.38
2022-07-29T20:32:07.955Z,4.80
2022-07-29T20:34:34.463Z,7.78
2022-07-29T20:37:02.655Z,5.78
2022-07-29T20:39:29.529Z,4.53
2022-07-29T20:41:56.354Z,7.85
2022-07-29T20:44:24.240Z,10.90
2022-07-29T20:46:50.860Z,9.65
2022-07-29T20:49:17.499Z,7.95
2022-07-29T20:51:44.293Z,11.90
2022-07-29T20:54:11.105Z,10.38
2022-07-29T20:56:38.161Z,8.13
2022-07-29T20:59:04.701Z,7.82
2022-07-29T21:01:32.422Z,9.35
2022-07-29T21:03:59.000Z,5.57
2022-07-29T21:06:25.737Z,6.60
2022-07-29T21:08:52.289Z,11.68
2022-07-29T21:11:18.805Z,9.55
2022-07-29T21:14:05.317Z,9.43
2022-07-29T21:16:33.596Z,7.28
2022-07-29T21:19:00.135Z,6.78
2022-07-29T21:21:26.875Z,7.50
2022-07-29T21:23:53.441Z,7.55
2022-07-29T21:26:20.020Z,7.18
2022-07-29T21:28:46.545Z,6.82
2022-07-29T21:31:17.185Z,6.88
2022-07-29T21:33:44.997Z,6.43
2022-07-29T21:36:42.770Z,10.88
2022-07-29T21:38:58.753Z,17.70
2022-07-29T21:41:25.528Z,17.52
2022-07-29T21:43:52.219Z,16.80
2022-07-29T21:46:21.392Z,12.00
2022-07-29T21:48:51.248Z,11.45
2022-07-29T21:51:17.821Z,11.77
2022-07-29T21:53:44.344Z,10.50
2022-07-29T21:56:14.945Z,7.32
2022-07-29T21:58:41.854Z,8.68
2022-07-29T22:01:08.453Z,8.75
2022-07-29T22:03:35.083Z,10.48
2022-07-29T22:06:01.594Z,8.55
2022-07-29T22:08:28.129Z,8.98
2022-07-29T22:10:54.747Z,8.00
2022-07-29T22:13:21.446Z,6.50
2022-07-29T22:15:48.436Z,6.82
2022-07-29T22:18:20.909Z,9.10
2022-07-29T22:20:48.483Z,7.22
2022-07-29T22:23:15.085Z,6.72
2022-07-29T22:25:41.716Z,8.27
2022-07-29T22:28:08.233Z,6.40
2022-07-29T22:30:34.822Z,7.10
2022-07-29T22:33:01.392Z,6.43
2022-07-29T22:35:28.001Z,7.45
2022-07-29T22:37:54.556Z,6.13
2022-07-29T22:40:21.235Z,7.30
2022-07-29T22:42:47.851Z,8.55
2022-07-29T22:45:14.401Z,9.45
2022-07-29T22:47:48.280Z,8.88
2022-07-29T22:50:15.648Z,7.00
2022-07-29T22:52:42.224Z,8.32
2022-07-29T22:55:08.841Z,9.18
2022-07-29T22:57:35.463Z,8.85
2022-07-29T23:00:02.655Z,7.82
2022-07-29T23:02:29.261Z,7.68
2022-07-29T23:04:55.869Z,7.43
2022-07-29T23:07:22.705Z,6.72
2022-07-29T23:09:49.270Z,7.85
2022-07-29T23:12:15.794Z,6.03
2022-07-29T23:14:42.387Z,9.90
2022-07-29T23:17:08.929Z,7.93
2022-07-29T23:19:35.475Z,10.15
2022-07-29T23:22:01.968Z,6.68
2022-07-29T23:24:28.498Z,6.90
2022-07-29T23:26:55.024Z,7.90
2022-07-29T23:29:21.611Z,7.53
2022-07-29T23:31:48.493Z,9.27
2022-07-29T23:34:15.103Z,8.57
2022-07-29T23:36:42.455Z,6.90
2022-07-29T23:39:13.114Z,8.98
2022-07-29T23:41:39.672Z,8.15
2022-07-29T23:44:06.336Z,9.40
2022-07-29T23:46:33.827Z,8.98
2022-07-29T23:49:00.875Z,7.18
2022-07-29T23:51:29.421Z,6.78
2022-07-29T23:53:58.232Z,7.20
2022-07-29T23:56:25.834Z,7.38
2022-07-29T23:58:53.290Z,8.68
